Crest Hill, Illinois
Current Conditions -  °F | °C
As of 7:15 PM on Monday 26 Jan 2015 (Local Time) from KJOT Reporting Station
Light Snow Light Snow  
Wind Chill: 20°   Ceiling: 700
Heat Index: 26°   Visibility: 2mi
Dew Point: 24°   Wind: 5mph
Humidity: 94%   Direction: 130°SE
Pressure: 29.9"   Gusts: NA
Location:  41.55°N, 88.12°W
Report Text: KJOT 270115Z AUTO 13004KT 2SM -SN OVC007 M03/M04 A2990 RMK AO2 T10351043
Loading
Personal Weather Stations






























Interactive Weather Map New forecast layout! Learn more

10-Day Weather Forecast

Advertisements
Track Severe Weather on mobile